Time;durP1;ratioP1;P1;durP2;ratioP2;P2;SDS_P1;SDS_P2;PMS_P1;PMS_P2;Temp;Humidity;BMP_temperature;BMP_pressure;BME280_temperature;BME280_humidity;BME280_pressure;Samples;Min_cycle;Max_cycle;Signal;HPM_P1;HPM_P2
2022/05/01 00:02:06;;;;;;;;;;;;;;;5.22;100.00;101073.91;5070594;28;19972;-76
2022/05/01 00:04:32;;;;;;;;;;;;;;;5.23;100.00;101067.84;5072011;28;19916;-76
2022/05/01 00:06:59;;;;;;;;;;;;;;;5.23;100.00;101052.19;5085261;28;19954;-77
2022/05/01 00:09:24;;;;;;;;;;;;;;;5.21;100.00;101041.66;5057111;28;20326;-78
2022/05/01 00:11:49;;;;;;;;;;;;;;;5.13;100.00;101040.28;5073695;28;19917;-77
2022/05/01 00:14:22;;;;;;;;;;;;;;;5.10;100.00;101029.66;5076705;28;20261;-78
2022/05/01 00:16:49;;;;;;;;;;;;;;;5.16;100.00;101013.47;5075932;28;19981;-77
2022/05/01 00:19:14;;;;;;;;;;;;;;;5.10;100.00;101002.66;5076614;28;19938;-78
2022/05/01 00:21:39;;;;;;;;;;;;;;;5.01;100.00;101006.50;5073426;28;20385;-77
2022/05/01 00:24:15;;;;;;;;;;;;;;;4.96;100.00;100988.78;5056349;28;19920;-77
2022/05/01 00:26:40;;;;;;;;;;;;;;;4.95;100.00;100982.63;5057641;28;19923;-77
2022/05/01 00:29:06;;;;;;;;;;;;;;;4.88;100.00;100970.03;5058917;28;19928;-77
2022/05/01 00:31:32;;;;;;;;;;;;;;;4.90;100.00;100934.50;5060873;28;19952;-77
2022/05/01 00:36:41;;;;;;;;;;;;;;;4.85;100.00;100913.34;5085565;28;19927;-78
2022/05/01 00:39:07;;;;;;;;;;;;;;;4.81;100.00;100913.06;5059181;28;20014;-76
2022/05/01 00:41:37;;;;;;;;;;;;;;;4.76;100.00;100904.97;5057746;28;20269;-80
2022/05/01 00:44:14;;;;;;;;;;;;;;;4.74;100.00;100898.75;5057299;28;20421;-79
2022/05/01 00:46:42;;;;;;;;;;;;;;;4.68;100.00;100882.75;5076496;28;19916;-79
2022/05/01 00:49:12;;;;;;;;;;;;;;;4.66;100.00;100873.91;5058000;28;19940;-80
2022/05/01 00:51:43;;;;;;;;;;;;;;;4.64;100.00;100879.03;5057797;28;20011;-79
2022/05/01 00:54:10;;;;;;;;;;;;;;;4.59;100.00;100875.25;5073863;28;19928;-79
2022/05/01 00:56:39;;;;;;;;;;;;;;;4.53;100.00;100864.44;5057980;28;20623;-79
2022/05/01 00:59:04;;;;;;;;;;;;;;;4.52;100.00;100854.81;5056477;28;19920;-77
2022/05/01 01:01:31;;;;;;;;;;;;;;;4.48;100.00;100842.41;5066087;28;20314;-78
2022/05/01 01:03:59;;;;;;;;;;;;;;;4.49;100.00;100825.97;5072427;28;20334;-78
2022/05/01 01:06:24;;;;;;;;;;;;;;;4.52;100.00;100792.22;5055255;28;19970;-77
2022/05/01 01:08:49;;;;;;;;;;;;;;;4.54;100.00;100776.66;5055201;28;19921;-77
2022/05/01 01:11:15;;;;;;;;;;;;;;;4.48;100.00;100761.59;5054689;28;19916;-76
2022/05/01 01:13:42;;;;;;;;;;;;;;;4.45;100.00;100741.44;5072506;28;20018;-77
2022/05/01 01:16:08;;;;;;;;;;;;;;;4.47;100.00;100721.59;5075129;28;20329;-78
2022/05/01 01:18:34;;;;;;;;;;;;;;;4.47;100.00;100695.50;5074736;28;19949;-77
2022/05/01 01:20:59;;;;;;;;;;;;;;;4.47;100.00;100682.47;5073780;28;20026;-77
2022/05/01 01:23:25;;;;;;;;;;;;;;;4.46;100.00;100672.84;5073886;28;19927;-77
2022/05/01 01:25:50;;;;;;;;;;;;;;;4.44;100.00;100666.66;5072029;28;19927;-77
2022/05/01 01:28:18;;;;;;;;;;;;;;;4.39;100.00;100669.78;5069084;28;19924;-78
2022/05/01 01:33:29;;;;;;;;;;;;;;;4.32;100.00;100648.56;5081217;28;19983;-78
2022/05/01 01:35:55;;;;;;;;;;;;;;;4.29;100.00;100643.19;5057647;28;19997;-78
2022/05/01 01:38:20;;;;;;;;;;;;;;;4.25;100.00;100635.97;5074798;28;19916;-77
2022/05/01 01:40:54;;;;;;;;;;;;;;;4.27;100.00;100630.84;5075484;28;19923;-79
2022/05/01 01:43:23;;;;;;;;;;;;;;;4.21;100.00;100628.81;5075221;28;19916;-77
2022/05/01 01:45:48;;;;;;;;;;;;;;;4.17;100.00;100634.66;5074087;28;19920;-78
2022/05/01 01:48:15;;;;;;;;;;;;;;;4.21;100.00;100631.41;5092826;28;19927;-78
2022/05/01 01:50:41;;;;;;;;;;;;;;;4.18;100.00;100633.84;5068831;28;19927;-78
2022/05/01 01:53:08;;;;;;;;;;;;;;;4.18;100.00;100625.13;5057393;28;19920;-77
2022/05/01 01:55:37;;;;;;;;;;;;;;;4.10;100.00;100624.66;5056855;28;20356;-78
2022/05/01 01:58:02;;;;;;;;;;;;;;;4.14;100.00;100626.66;5057040;28;19974;-78
2022/05/01 02:00:28;;;;;;;;;;;;;;;4.13;100.00;100622.25;5067371;28;19924;-78
2022/05/01 02:03:00;;;;;;;;;;;;;;;4.13;100.00;100623.16;5054713;28;19977;-77
2022/05/01 02:05:25;;;;;;;;;;;;;;;4.13;100.00;100614.41;5055046;28;19939;-80
2022/05/01 02:07:51;;;;;;;;;;;;;;;4.10;100.00;100604.75;5060368;28;20360;-78
2022/05/01 02:10:17;;;;;;;;;;;;;;;4.10;100.00;100611.63;5055094;28;19995;-78
2022/05/01 02:12:42;;;;;;;;;;;;;;;4.08;100.00;100601.13;5055217;28;19917;-79
2022/05/01 02:15:07;;;;;;;;;;;;;;;4.05;100.00;100600.94;5052905;28;20675;-78
2022/05/01 02:17:33;;;;;;;;;;;;;;;4.02;100.00;100605.09;5054319;28;19921;-77
2022/05/01 02:19:59;;;;;;;;;;;;;;;4.00;100.00;100596.28;5052647;28;19920;-77
2022/05/01 02:22:24;;;;;;;;;;;;;;;3.93;100.00;100600.22;5060923;28;19928;-76
2022/05/01 02:24:49;;;;;;;;;;;;;;;3.92;100.00;100595.84;5057098;28;20299;-76
2022/05/01 02:27:15;;;;;;;;;;;;;;;3.92;100.00;100583.72;5061960;28;20388;-77
2022/05/01 02:29:42;;;;;;;;;;;;;;;3.91;100.00;100588.84;5068300;28;19921;-75
2022/05/01 02:32:07;;;;;;;;;;;;;;;3.90;100.00;100587.94;5053907;28;20277;-76
2022/05/01 02:34:34;;;;;;;;;;;;;;;3.91;100.00;100586.22;5071020;28;19924;-76
2022/05/01 02:36:59;;;;;;;;;;;;;;;3.90;100.00;100569.72;5054108;28;19920;-76
2022/05/01 02:39:24;;;;;;;;;;;;;;;3.92;100.00;100557.66;5080173;28;19927;-77
2022/05/01 02:41:50;;;;;;;;;;;;;;;3.93;100.00;100559.47;5070283;28;20289;-76
2022/05/01 02:44:16;;;;;;;;;;;;;;;3.90;100.00;100547.94;5063192;28;19916;-76
2022/05/01 02:46:41;;;;;;;;;;;;;;;3.88;100.00;100549.56;5069429;28;20375;-75
2022/05/01 02:49:06;;;;;;;;;;;;;;;3.91;100.00;100544.53;5062054;28;19912;-77
2022/05/01 02:51:32;;;;;;;;;;;;;;;3.90;100.00;100542.75;5077792;28;20269;-76
2022/05/01 02:53:58;;;;;;;;;;;;;;;3.86;100.00;100535.56;5077175;28;20133;-76
2022/05/01 02:56:24;;;;;;;;;;;;;;;3.85;100.00;100533.78;5074403;28;19921;-76
2022/05/01 02:58:49;;;;;;;;;;;;;;;3.82;100.00;100518.84;5068041;28;20542;-76
2022/05/01 03:01:14;;;;;;;;;;;;;;;3.78;100.00;100512.56;5076505;28;19920;-76
2022/05/01 03:03:39;;;;;;;;;;;;;;;3.80;100.00;100502.25;5076990;28;19922;-77
2022/05/01 03:06:05;;;;;;;;;;;;;;;3.86;100.00;100493.91;5076500;28;19916;-77
2022/05/01 03:08:30;;;;;;;;;;;;;;;3.85;100.00;100482.56;5095522;28;20003;-76
2022/05/01 03:10:55;;;;;;;;;;;;;;;3.81;100.00;100469.28;5059597;28;20241;-76
2022/05/01 03:13:23;;;;;;;;;;;;;;;3.76;100.00;100454.31;5064725;28;19963;-76
2022/05/01 03:15:51;;;;;;;;;;;;;;;3.73;100.00;100437.63;5061790;28;19967;-76
2022/05/01 03:23:46;;;;;;;;;;;;;;;3.67;100.00;100398.22;5074076;28;20076;-77
2022/05/01 03:26:11;;;;;;;;;;;;;;;3.70;100.00;100387.97;5056473;28;19924;-78
2022/05/01 03:28:36;;;;;;;;;;;;;;;3.70;100.00;100372.34;5057013;28;19924;-77
2022/05/01 03:31:03;;;;;;;;;;;;;;;3.68;100.00;100355.72;5064843;28;19924;-77
2022/05/01 03:33:31;;;;;;;;;;;;;;;3.66;100.00;100355.63;5077330;28;20011;-78
2022/05/01 03:35:57;;;;;;;;;;;;;;;3.69;100.00;100350.59;5085793;28;19924;-76
2022/05/01 03:38:22;;;;;;;;;;;;;;;3.67;100.00;100351.34;5060181;28;20291;-76
2022/05/01 03:40:47;;;;;;;;;;;;;;;3.58;100.00;100342.19;5076208;28;19924;-76
2022/05/01 03:43:17;;;;;;;;;;;;;;;3.59;100.00;100336.19;5075442;28;20376;-76
2022/05/01 03:45:43;;;;;;;;;;;;;;;3.57;100.00;100326.47;5093398;28;19989;-76
2022/05/01 03:48:08;;;;;;;;;;;;;;;3.54;100.00;100326.31;5075380;28;20322;-76
2022/05/01 03:50:34;;;;;;;;;;;;;;;3.52;100.00;100333.13;5056842;28;19923;-76
2022/05/01 03:53:04;;;;;;;;;;;;;;;3.52;100.00;100320.13;5072386;28;19952;-75
2022/05/01 03:55:30;;;;;;;;;;;;;;;3.47;100.00;100316.38;5073094;28;19920;-76
2022/05/01 03:57:58;;;;;;;;;;;;;;;3.41;100.00;100317.81;5071732;28;20276;-76
2022/05/01 04:00:24;;;;;;;;;;;;;;;3.39;100.00;100319.44;5059530;28;19921;-75
2022/05/01 04:02:52;;;;;;;;;;;;;;;3.45;100.00;100315.38;5091142;28;20465;-76
2022/05/01 04:05:17;;;;;;;;;;;;;;;3.52;100.00;100309.72;5076158;28;20003;-75
2022/05/01 04:07:43;;;;;;;;;;;;;;;3.56;100.00;100307.38;5076077;28;19944;-76
2022/05/01 04:10:08;;;;;;;;;;;;;;;3.60;100.00;100300.59;5059968;28;19927;-76
2022/05/01 04:12:42;;;;;;;;;;;;;;;3.59;100.00;100312.75;5072618;28;19917;-76
2022/05/01 04:15:07;;;;;;;;;;;;;;;3.62;100.00;100309.41;5091367;28;19970;-75
2022/05/01 04:17:39;;;;;;;;;;;;;;;3.64;100.00;100314.72;5075104;28;19916;-75
2022/05/01 04:20:06;;;;;;;;;;;;;;;3.68;100.00;100311.44;5059942;28;19917;-75
2022/05/01 04:22:41;;;;;;;;;;;;;;;3.70;100.00;100308.13;5074539;28;19920;-76
2022/05/01 04:25:07;;;;;;;;;;;;;;;3.77;100.00;100307.63;5072865;28;20359;-75
2022/05/01 04:27:32;;;;;;;;;;;;;;;3.84;100.00;100293.25;5086784;28;20379;-76
2022/05/01 04:29:58;;;;;;;;;;;;;;;3.90;100.00;100282.25;5068466;28;19966;-76
2022/05/01 04:32:23;;;;;;;;;;;;;;;4.04;100.00;100270.88;5059364;28;19948;-75
2022/05/01 04:34:49;;;;;;;;;;;;;;;4.10;100.00;100272.88;5057851;28;19920;-76
2022/05/01 04:37:14;;;;;;;;;;;;;;;4.19;100.00;100272.47;5071116;28;19927;-75
2022/05/01 04:39:40;;;;;;;;;;;;;;;4.22;100.00;100268.31;5074431;28;19920;-76
2022/05/01 04:42:05;;;;;;;;;;;;;;;4.27;100.00;100277.28;5051412;28;20153;-75
2022/05/01 04:44:30;;;;;;;;;;;;;;;4.47;100.00;100277.41;5055095;28;19995;-76
2022/05/01 04:46:56;;;;;;;;;;;;;;;5.45;100.00;100212.56;5054379;28;20015;-76
2022/05/01 04:49:22;;;;;;;;;;;;;;;6.49;100.00;100150.91;5058638;28;19920;-76
2022/05/01 04:51:47;;;;;;;;;;;;;;;7.64;100.00;100095.94;5074796;28;19916;-75
2022/05/01 04:54:13;;;;;;;;;;;;;;;8.44;100.00;100067.22;5067278;28;20567;-76
2022/05/01 04:59:22;;;;;;;;;;;;;;;7.95;100.00;100210.66;5076145;28;19927;-78
2022/05/01 05:01:47;;;;;;;;;;;;;;;7.78;100.00;100262.44;5055930;28;20011;-74
2022/05/01 05:04:13;;;;;;;;;;;;;;;7.98;100.00;100280.66;5053862;28;20434;-73
2022/05/01 05:06:38;;;;;;;;;;;;;;;8.70;100.00;100292.88;5054410;28;19921;-74
2022/05/01 05:11:48;;;;;;;;;;;;;;;9.25;100.00;100367.41;5078511;28;19927;-74
2022/05/01 05:14:14;;;;;;;;;;;;;;;9.41;100.00;100424.88;5073625;28;19916;-73
2022/05/01 05:16:41;;;;;;;;;;;;;;;9.42;100.00;100486.22;5074301;28;19920;-76
2022/05/01 05:19:06;;;;;;;;;;;;;;;9.43;100.00;100545.81;5073595;28;19928;-78
2022/05/01 05:21:31;;;;;;;;;;;;;;;9.12;100.00;100683.91;5074739;28;19920;-75
2022/05/01 05:23:57;;;;;;;;;;;;;;;9.01;100.00;100808.69;5074229;28;19941;-77
2022/05/01 05:26:23;;;;;;;;;;;;;;;8.81;100.00;100903.28;5074696;28;20380;-76
2022/05/01 05:28:48;;;;;;;;;;;;;;;8.39;100.00;100959.13;5074590;28;19931;-78
2022/05/01 05:31:13;;;;;;;;;;;;;;;8.93;100.00;100961.59;5075365;28;19963;-76
2022/05/01 05:33:40;;;;;;;;;;;;;;;9.00;100.00;101017.94;5074638;28;19916;-74
2022/05/01 05:36:05;;;;;;;;;;;;;;;8.62;100.00;101088.84;5074859;28;20302;-75
2022/05/01 05:38:30;;;;;;;;;;;;;;;9.11;100.00;101107.72;5074350;28;19962;-78
2022/05/01 05:40:55;;;;;;;;;;;;;;;9.33;100.00;101157.78;5074638;28;19912;-75
2022/05/01 05:43:22;;;;;;;;;;;;;;;9.69;100.00;101218.16;5074688;28;19969;-76
2022/05/01 05:45:47;;;;;;;;;;;;;;;10.00;100.00;101272.13;5074399;28;19939;-74
2022/05/01 05:48:12;;;;;;;;;;;;;;;9.81;100.00;101344.03;5057548;28;20353;-75
2022/05/01 05:50:38;;;;;;;;;;;;;;;10.22;100.00;101368.75;5057341;28;20044;-76
2022/05/01 05:53:03;;;;;;;;;;;;;;;9.99;100.00;101429.91;5073801;28;19920;-75
2022/05/01 05:55:33;;;;;;;;;;;;;;;9.93;100.00;101469.09;5074516;28;19923;-78
2022/05/01 05:57:58;;;;;;;;;;;;;;;9.96;100.00;101629.72;5057482;28;19967;-76
2022/05/01 06:00:23;;;;;;;;;;;;;;;10.21;100.00;101755.59;5072958;28;20446;-77
2022/05/01 06:02:49;;;;;;;;;;;;;;;10.07;100.00;101921.56;5072849;28;20237;-77
2022/05/01 06:05:14;;;;;;;;;;;;;;;9.80;100.00;101936.69;5073061;28;20435;-76
2022/05/01 06:07:39;;;;;;;;;;;;;;;9.73;100.00;101946.81;5073986;28;20344;-76
2022/05/01 06:10:05;;;;;;;;;;;;;;;9.67;100.00;101955.25;5073392;28;19916;-76
2022/05/01 06:12:30;;;;;;;;;;;;;;;9.45;100.00;101961.00;5073353;28;20099;-77
2022/05/01 06:14:55;;;;;;;;;;;;;;;9.36;100.00;101969.25;5056658;28;20376;-76
2022/05/01 06:17:20;;;;;;;;;;;;;;;9.68;100.00;101967.59;5074004;28;19969;-77
2022/05/01 06:19:46;;;;;;;;;;;;;;;10.29;100.00;101995.56;5057478;28;19920;-76
2022/05/01 06:22:11;;;;;;;;;;;;;;;10.55;100.00;102012.78;5077730;28;20364;-77
2022/05/01 06:24:36;;;;;;;;;;;;;;;11.54;100.00;102063.72;5077306;28;19920;-74
2022/05/01 06:27:02;;;;;;;;;;;;;;;11.82;100.00;102109.97;5077401;28;20360;-75
2022/05/01 06:29:27;;;;;;;;;;;;;;;11.89;100.00;102133.22;5077489;28;19927;-75
2022/05/01 06:31:52;;;;;;;;;;;;;;;11.09;100.00;102153.69;5060132;28;19943;-74
2022/05/01 06:34:18;;;;;;;;;;;;;;;11.44;100.00;102152.03;5077327;28;19921;-75
2022/05/01 06:36:43;;;;;;;;;;;;;;;11.35;100.00;102150.63;5077344;28;19916;-74
2022/05/01 06:39:11;;;;;;;;;;;;;;;11.46;100.00;102163.53;5059789;28;19932;-75
2022/05/01 06:41:36;;;;;;;;;;;;;;;11.71;100.00;102196.50;5077397;28;19920;-74
2022/05/01 06:44:03;;;;;;;;;;;;;;;11.11;100.00;102195.94;5076432;28;19942;-76
2022/05/01 06:46:28;;;;;;;;;;;;;;;11.14;100.00;102191.72;5060292;28;19928;-76
2022/05/01 06:48:53;;;;;;;;;;;;;;;11.57;100.00;102202.78;5095055;28;20254;-76
2022/05/01 06:51:19;;;;;;;;;;;;;;;10.63;100.00;102189.69;5060565;28;20038;-75
2022/05/01 06:53:45;;;;;;;;;;;;;;;11.28;100.00;102181.94;5076559;28;19934;-76
2022/05/01 06:56:10;;;;;;;;;;;;;;;11.36;100.00;102191.97;5076951;28;19912;-74
2022/05/01 06:58:36;;;;;;;;;;;;;;;11.46;100.00;102211.03;5077047;28;19974;-75
2022/05/01 07:01:01;;;;;;;;;;;;;;;11.90;100.00;102205.41;5076514;28;19916;-75
2022/05/01 07:03:28;;;;;;;;;;;;;;;11.85;100.00;102211.38;5094825;28;19995;-74
2022/05/01 07:05:53;;;;;;;;;;;;;;;12.30;100.00;102225.97;5072996;28;19917;-75
2022/05/01 07:08:19;;;;;;;;;;;;;;;12.73;100.00;102249.28;5075773;28;19920;-75
2022/05/01 07:10:44;;;;;;;;;;;;;;;13.65;100.00;102273.94;5059567;28;19921;-75
2022/05/01 07:13:10;;;;;;;;;;;;;;;14.23;100.00;102298.59;5076768;28;19916;-75
2022/05/01 07:15:37;;;;;;;;;;;;;;;13.83;100.00;102314.50;5076769;28;19965;-77
2022/05/01 07:18:02;;;;;;;;;;;;;;;13.03;100.00;102323.00;5076610;28;19916;-77
2022/05/01 07:20:27;;;;;;;;;;;;;;;13.70;100.00;102330.63;5076056;28;19923;-75
2022/05/01 07:22:53;;;;;;;;;;;;;;;13.13;100.00;102341.13;5076313;28;19982;-77
2022/05/01 07:25:18;;;;;;;;;;;;;;;13.16;100.00;102346.56;5076908;28;19920;-77
2022/05/01 07:27:43;;;;;;;;;;;;;;;12.44;100.00;102325.31;5076993;28;19916;-76
2022/05/01 07:30:09;;;;;;;;;;;;;;;12.63;100.00;102328.91;5076223;28;19955;-77
2022/05/01 07:32:34;;;;;;;;;;;;;;;13.02;100.00;102342.31;5076217;28;20361;-77
2022/05/01 07:35:02;;;;;;;;;;;;;;;12.48;100.00;102348.44;5076201;28;19942;-77
2022/05/01 07:37:27;;;;;;;;;;;;;;;11.89;100.00;102335.59;5077200;28;19923;-77
2022/05/01 07:39:54;;;;;;;;;;;;;;;11.99;100.00;102328.28;5076775;28;19920;-77
2022/05/01 07:42:19;;;;;;;;;;;;;;;11.84;100.00;102351.16;5077319;28;19971;-76
2022/05/01 07:44:45;;;;;;;;;;;;;;;12.28;100.00;102351.78;5076248;28;19978;-77
2022/05/01 07:47:10;;;;;;;;;;;;;;;12.17;100.00;102352.09;5076200;28;19920;-76
2022/05/01 07:49:36;;;;;;;;;;;;;;;12.49;100.00;102367.81;5076419;28;19965;-77
2022/05/01 07:52:01;;;;;;;;;;;;;;;12.37;100.00;102355.81;5076593;28;20016;-78
2022/05/01 07:54:29;;;;;;;;;;;;;;;12.32;100.00;102365.22;5059835;28;20375;-78
2022/05/01 07:56:54;;;;;;;;;;;;;;;12.73;100.00;102376.13;5075888;28;19916;-76
2022/05/01 07:59:20;;;;;;;;;;;;;;;13.08;100.00;102370.00;5076665;28;20026;-76
2022/05/01 08:01:45;;;;;;;;;;;;;;;13.74;100.00;102377.59;5076485;28;20339;-77
2022/05/01 08:04:29;;;;;;;;;;;;;;;14.55;100.00;102395.41;5075847;28;19927;-76
2022/05/01 08:06:58;;;;;;;;;;;;;;;14.66;100.00;102418.03;5075483;28;19923;-77
2022/05/01 08:09:23;;;;;;;;;;;;;;;14.55;100.00;102421.91;5075963;28;19961;-78
2022/05/01 08:11:49;;;;;;;;;;;;;;;14.48;100.00;102425.13;5075170;28;19916;-78
2022/05/01 08:14:14;;;;;;;;;;;;;;;15.11;100.00;102421.72;5075492;28;19922;-79
2022/05/01 08:16:40;;;;;;;;;;;;;;;15.49;100.00;102440.97;5074814;28;20003;-76
2022/05/01 08:21:49;;;;;;;;;;;;;;;15.64;100.00;102449.56;5093263;28;19927;-77
2022/05/01 08:24:15;;;;;;;;;;;;;;;16.02;100.00;102442.28;5092845;28;19916;-76
2022/05/01 08:26:46;;;;;;;;;;;;;;;16.22;100.00;102451.00;5093130;28;19927;-77
2022/05/01 08:29:11;;;;;;;;;;;;;;;16.43;100.00;102458.88;5074985;28;19927;-78
2022/05/01 08:31:37;;;;;;;;;;;;;;;16.75;100.00;102464.50;5092312;28;20003;-78
2022/05/01 08:34:04;;;;;;;;;;;;;;;16.58;100.00;102465.59;5092762;28;19923;-78
2022/05/01 08:36:31;;;;;;;;;;;;;;;16.67;100.00;102463.28;5074951;28;19999;-76
2022/05/01 08:38:56;;;;;;;;;;;;;;;16.41;100.00;102468.56;5058150;28;20334;-73
2022/05/01 08:41:22;;;;;;;;;;;;;;;16.51;100.00;102461.81;5074933;28;19916;-75
2022/05/01 08:43:49;;;;;;;;;;;;;;;15.30;100.00;102458.78;5057254;28;19920;-76
2022/05/01 08:46:24;;;;;;;;;;;;;;;15.73;100.00;102457.91;5074121;28;19924;-74
2022/05/01 08:49:03;;;;;;;;;;;;;;;14.69;100.00;102452.63;5092333;28;19920;-74
2022/05/01 08:51:33;;;;;;;;;;;;;;;15.31;100.00;102451.75;5074777;28;20362;-75
2022/05/01 08:54:02;;;;;;;;;;;;;;;15.91;100.00;102454.19;5073970;28;20033;-76
2022/05/01 08:56:28;;;;;;;;;;;;;;;15.21;100.00;102451.38;5071971;28;20233;-76
2022/05/01 08:58:53;;;;;;;;;;;;;;;14.44;100.00;102460.31;5074514;28;19916;-76
2022/05/01 09:01:19;;;;;;;;;;;;;;;14.45;100.00;102446.19;5074624;28;19916;-75
2022/05/01 09:03:47;;;;;;;;;;;;;;;14.34;100.00;102446.63;5074866;28;19923;-76
2022/05/01 09:06:12;;;;;;;;;;;;;;;14.07;100.00;102448.88;5074719;28;19916;-76
2022/05/01 09:08:38;;;;;;;;;;;;;;;14.26;100.00;102445.38;5074635;28;19916;-76
2022/05/01 09:13:51;;;;;;;;;;;;;;;13.74;100.00;102448.19;5092760;28;20024;-77
2022/05/01 09:16:16;;;;;;;;;;;;;;;13.65;100.00;102452.19;5074689;28;20346;-76
2022/05/01 09:18:46;;;;;;;;;;;;;;;13.57;100.00;102453.56;5075046;28;19916;-75
2022/05/01 09:21:11;;;;;;;;;;;;;;;13.61;100.00;102459.91;5057829;28;20288;-78
2022/05/01 09:23:38;;;;;;;;;;;;;;;13.41;100.00;102462.47;5074797;28;19916;-76
2022/05/01 09:26:04;;;;;;;;;;;;;;;13.03;100.00;102458.75;5092486;28;19944;-77
2022/05/01 09:28:30;;;;;;;;;;;;;;;13.56;100.00;102464.97;5057687;28;19924;-76
2022/05/01 09:30:55;;;;;;;;;;;;;;;14.06;100.00;102462.97;5068221;28;19971;-77
2022/05/01 09:33:21;;;;;;;;;;;;;;;13.88;100.00;102460.34;5070428;28;19940;-76
2022/05/01 09:35:46;;;;;;;;;;;;;;;14.28;100.00;102456.94;5070767;28;19916;-76
2022/05/01 09:38:19;;;;;;;;;;;;;;;13.98;100.00;102452.03;5071426;28;19917;-78
2022/05/01 09:40:49;;;;;;;;;;;;;;;13.55;100.00;102454.31;5070616;28;19916;-75
2022/05/01 09:43:36;;;;;;;;;;;;;;;12.78;100.00;102453.94;5070696;28;20019;-78
2022/05/01 09:46:22;;;;;;;;;;;;;;;13.07;100.00;102446.63;5071577;28;19924;-77
2022/05/01 09:48:59;;;;;;;;;;;;;;;13.42;100.00;102448.44;5072278;28;19917;-78
2022/05/01 09:51:25;;;;;;;;;;;;;;;13.35;100.00;102448.06;5071681;28;19965;-78
2022/05/01 09:53:51;;;;;;;;;;;;;;;13.41;100.00;102451.91;5071637;28;19920;-78
2022/05/01 09:56:16;;;;;;;;;;;;;;;13.69;100.00;102453.25;5075120;28;19916;-77
2022/05/01 09:58:43;;;;;;;;;;;;;;;13.92;100.00;102454.38;5076488;28;19917;-77
2022/05/01 10:01:11;;;;;;;;;;;;;;;14.07;100.00;102456.81;5075228;28;19923;-77
2022/05/01 10:03:48;;;;;;;;;;;;;;;13.91;100.00;102456.94;5074957;28;19916;-77
2022/05/01 10:06:14;;;;;;;;;;;;;;;13.32;100.00;102447.88;5059130;28;19916;-78
2022/05/01 10:08:40;;;;;;;;;;;;;;;13.42;100.00;102455.44;5075529;28;19916;-78
2022/05/01 10:11:06;;;;;;;;;;;;;;;14.03;100.00;102456.59;5075447;28;20690;-77
2022/05/01 10:13:41;;;;;;;;;;;;;;;13.92;100.00;102466.69;5075669;28;19916;-78
2022/05/01 10:16:09;;;;;;;;;;;;;;;14.10;100.00;102466.66;5075794;28;19921;-77
2022/05/01 10:18:35;;;;;;;;;;;;;;;14.51;100.00;102472.97;5059061;28;19920;-78
2022/05/01 10:21:00;;;;;;;;;;;;;;;14.72;100.00;102467.78;5074688;28;20352;-78
2022/05/01 10:23:28;;;;;;;;;;;;;;;14.91;100.00;102464.19;5074760;28;19917;-77
2022/05/01 10:26:00;;;;;;;;;;;;;;;14.97;100.00;102463.56;5074602;28;20357;-77
2022/05/01 10:28:39;;;;;;;;;;;;;;;14.71;100.00;102452.69;5076283;28;19924;-77
2022/05/01 10:34:31;;;;;;;;;;;;;;;14.54;100.00;102449.25;5075294;28;19973;-76
2022/05/01 10:37:02;;;;;;;;;;;;;;;14.23;100.00;102446.94;5075336;28;19942;-76
2022/05/01 10:39:33;;;;;;;;;;;;;;;13.43;100.00;102437.00;5075905;28;19916;-76
2022/05/01 10:41:59;;;;;;;;;;;;;;;13.59;100.00;102441.28;5057964;28;19927;-77
2022/05/01 10:44:28;;;;;;;;;;;;;;;13.62;100.00;102429.97;5074667;28;19916;-77
2022/05/01 10:46:54;;;;;;;;;;;;;;;13.55;100.00;102435.78;5057657;28;19974;-77
2022/05/01 10:49:36;;;;;;;;;;;;;;;14.01;100.00;102422.09;5074905;28;19912;-78
2022/05/01 10:52:19;;;;;;;;;;;;;;;14.11;100.00;102428.75;5057880;28;19920;-79
2022/05/01 10:54:54;;;;;;;;;;;;;;;14.26;100.00;102429.47;5074187;28;19919;-78
2022/05/01 10:57:20;;;;;;;;;;;;;;;13.91;100.00;102419.88;5073417;28;19916;-78
2022/05/01 10:59:48;;;;;;;;;;;;;;;14.39;100.00;102414.09;5072047;28;20003;-79
2022/05/01 11:02:17;;;;;;;;;;;;;;;14.26;100.00;102424.19;5072953;28;19912;-78
2022/05/01 11:04:42;;;;;;;;;;;;;;;14.26;100.00;102418.88;5072505;28;20380;-78
2022/05/01 11:07:11;;;;;;;;;;;;;;;15.25;100.00;102412.59;5071608;28;19955;-79
2022/05/01 11:09:40;;;;;;;;;;;;;;;15.29;100.00;102419.84;5073709;28;19916;-79
2022/05/01 11:12:08;;;;;;;;;;;;;;;14.71;100.00;102411.22;5073578;28;19923;-78
2022/05/01 11:14:52;;;;;;;;;;;;;;;14.59;100.00;102407.06;5073239;28;19955;-78
2022/05/01 11:17:36;;;;;;;;;;;;;;;14.25;100.00;102406.44;5056216;28;19917;-78
2022/05/01 11:20:04;;;;;;;;;;;;;;;15.01;100.00;102389.50;5073074;28;19923;-78
2022/05/01 11:22:30;;;;;;;;;;;;;;;15.18;100.00;102389.28;5072201;28;19999;-79
2022/05/01 11:24:55;;;;;;;;;;;;;;;14.82;100.00;102393.13;5073708;28;19923;-79
2022/05/01 11:27:21;;;;;;;;;;;;;;;15.06;100.00;102390.59;5072586;28;19924;-78
2022/05/01 11:30:06;;;;;;;;;;;;;;;14.75;100.00;102384.81;5073384;28;20388;-78
2022/05/01 11:32:43;;;;;;;;;;;;;;;14.73;100.00;102379.47;5073961;28;20015;-78
2022/05/01 11:35:08;;;;;;;;;;;;;;;14.27;100.00;102380.03;5073117;28;19920;-78
2022/05/01 11:37:46;;;;;;;;;;;;;;;14.67;100.00;102381.84;5072330;28;19940;-78
2022/05/01 11:40:19;;;;;;;;;;;;;;;14.97;100.00;102374.28;5073804;28;19917;-78
2022/05/01 11:42:45;;;;;;;;;;;;;;;15.48;100.00;102387.00;5071047;28;20359;-77
2022/05/01 11:45:11;;;;;;;;;;;;;;;14.33;100.00;102381.19;5055305;28;20015;-79
2022/05/01 11:47:36;;;;;;;;;;;;;;;13.73;100.00;102367.84;5072597;28;20418;-78
2022/05/01 11:50:02;;;;;;;;;;;;;;;14.52;100.00;102369.66;5071113;28;19917;-78
2022/05/01 11:52:28;;;;;;;;;;;;;;;14.99;100.00;102361.06;5071204;28;20409;-78
2022/05/01 11:54:54;;;;;;;;;;;;;;;15.31;100.00;102365.06;5071515;28;19916;-78
2022/05/01 12:02:58;;;;;;;;;;;;;;;15.49;100.00;102348.97;5072364;28;20376;-78
2022/05/01 12:05:23;;;;;;;;;;;;;;;15.04;100.00;102351.59;5071818;28;19916;-79
2022/05/01 12:07:56;;;;;;;;;;;;;;;15.43;100.00;102349.63;5070857;28;19962;-78
2022/05/01 12:10:22;;;;;;;;;;;;;;;15.34;100.00;102343.97;5070952;28;19917;-79
2022/05/01 12:12:48;;;;;;;;;;;;;;;14.98;100.00;102348.69;5072159;28;19939;-78
2022/05/01 12:15:14;;;;;;;;;;;;;;;15.06;100.00;102341.94;5071702;28;19970;-78
2022/05/01 12:17:40;;;;;;;;;;;;;;;15.19;100.00;102344.22;5070689;28;19917;-78
2022/05/01 12:20:06;;;;;;;;;;;;;;;15.68;100.00;102336.44;5071234;28;19916;-79
2022/05/01 12:22:37;;;;;;;;;;;;;;;15.91;100.00;102338.25;5071263;28;19924;-78
2022/05/01 12:25:06;;;;;;;;;;;;;;;15.78;100.00;102333.31;5071235;28;19916;-78
2022/05/01 12:27:33;;;;;;;;;;;;;;;15.82;100.00;102334.31;5072174;28;20289;-78
2022/05/01 12:30:00;;;;;;;;;;;;;;;16.20;100.00;102329.53;5054268;28;19955;-78
2022/05/01 12:32:26;;;;;;;;;;;;;;;16.29;100.00;102329.88;5070542;28;19921;-78
2022/05/01 12:34:51;;;;;;;;;;;;;;;15.89;100.00;102323.09;5070694;28;20001;-78
2022/05/01 12:37:17;;;;;;;;;;;;;;;15.40;100.00;102325.63;5070326;28;19991;-78
2022/05/01 12:40:12;;;;;;;;;;;;;;;15.03;100.00;102315.28;5071043;28;20168;-77
2022/05/01 12:45:37;;;;;;;;;;;;;;;14.70;100.00;102313.94;5071526;28;19969;-78
2022/05/01 12:48:04;;;;;;;;;;;;;;;14.49;100.00;102310.31;5070595;28;19916;-78
2022/05/01 12:50:31;;;;;;;;;;;;;;;14.77;100.00;102301.81;5070161;28;20019;-78
2022/05/01 12:53:01;;;;;;;;;;;;;;;14.91;100.00;102305.06;5070180;28;19956;-78
2022/05/01 12:55:33;;;;;;;;;;;;;;;14.96;100.00;102303.53;5070766;28;19927;-79
2022/05/01 12:57:59;;;;;;;;;;;;;;;14.96;100.00;102306.19;5071292;28;20463;-78
2022/05/01 13:00:41;;;;;;;;;;;;;;;14.89;100.00;102306.75;5069907;28;19916;-79
2022/05/01 13:03:20;;;;;;;;;;;;;;;14.74;100.00;102303.47;5071407;28;19921;-78
2022/05/01 13:06:02;;;;;;;;;;;;;;;14.69;100.00;102301.50;5069698;28;19924;-79